Terminal Aerodrome Forecast
Issued by NWS

Home | Current Version | Previous Version | Text Only | Print | Product List | Glossary On
Versions: 1 2 3 4 5 6 7 8 9 10 11 12
000
FTUS44 KLZK 070500
TAFLLQ
TAF
KLLQ 070530Z 0706/0806 13005KT P6SM BKN150
     FM071100 18009KT P6SM SCT025 BKN080
     FM071600 17008G15KT P6SM SCT035 BKN060
     FM080100 13007KT P6SM BKN035=

USA.gov is the U.S. government's official web portal to all federal, state and local government web resources and services.